Time;durP1;ratioP1;P1;durP2;ratioP2;P2;SDS_P1;SDS_P2;PMS_P1;PMS_P2;Temp;Humidity;BMP_temperature;BMP_pressure;BME280_temperature;BME280_humidity;BME280_pressure;Samples;Min_cycle;Max_cycle;Signal;HPM_P1;HPM_P2
2023/10/08 00:01:03;;;;;;;;;;;18.80;73.20;;;;;;5072709;28;19913;-79
2023/10/08 00:03:29;;;;;;;;;;;18.70;73.10;;;;;;5071193;28;19921;-79
2023/10/08 00:05:55;;;;;;;;;;;18.60;73.50;;;;;;5071576;28;19915;-78
2023/10/08 00:08:21;;;;;;;;;;;18.60;73.90;;;;;;5072686;28;19987;-78
2023/10/08 00:10:47;;;;;;;;;;;18.60;73.80;;;;;;5074798;28;20281;-78
2023/10/08 00:13:15;;;;;;;;;;;18.60;73.70;;;;;;5072590;28;19916;-78
2023/10/08 00:15:54;;;;;;;;;;;18.60;73.70;;;;;;5072763;28;19931;-78
2023/10/08 00:18:20;;;;;;;;;;;18.60;73.40;;;;;;5071308;28;19913;-79
2023/10/08 00:20:54;;;;;;;;;;;18.60;73.50;;;;;;5072850;28;19915;-79
2023/10/08 00:23:25;;;;;;;;;;;18.50;73.70;;;;;;5072515;28;19954;-79
2023/10/08 00:25:54;;;;;;;;;;;18.60;73.60;;;;;;5073849;28;19952;-78
2023/10/08 00:28:21;;;;;;;;;;;18.60;73.80;;;;;;5074025;28;19913;-79
2023/10/08 00:30:47;;;;;;;;;;;18.60;73.40;;;;;;5076120;28;19913;-79
2023/10/08 00:33:14;;;;;;;;;;;18.60;73.40;;;;;;5074704;28;19913;-78
2023/10/08 00:35:41;;;;;;;;;;;18.60;73.40;;;;;;5078360;28;20274;-78
2023/10/08 00:38:17;;;;;;;;;;;18.60;73.70;;;;;;5073284;28;19940;-79
2023/10/08 00:40:46;;;;;;;;;;;18.50;73.70;;;;;;5074570;28;19912;-79
2023/10/08 00:43:34;;;;;;;;;;;18.60;73.90;;;;;;5075249;28;20289;-78
2023/10/08 00:45:59;;;;;;;;;;;18.50;74.20;;;;;;5076542;28;19909;-78
2023/10/08 00:48:29;;;;;;;;;;;18.40;74.20;;;;;;5074808;28;19920;-79
2023/10/08 00:51:15;;;;;;;;;;;18.40;74.40;;;;;;5077494;28;20387;-79
2023/10/08 00:53:43;;;;;;;;;;;18.40;74.80;;;;;;5074409;28;19919;-79
2023/10/08 00:56:18;;;;;;;;;;;18.40;74.30;;;;;;5076740;28;19927;-79
2023/10/08 00:58:47;;;;;;;;;;;18.40;74.50;;;;;;5074378;28;19908;-79
2023/10/08 01:01:16;;;;;;;;;;;18.30;74.70;;;;;;5075689;28;19920;-79
2023/10/08 01:03:44;;;;;;;;;;;18.30;74.90;;;;;;5077230;28;19931;-78
2023/10/08 01:06:14;;;;;;;;;;;18.20;75.00;;;;;;5077789;28;19929;-78
2023/10/08 01:08:45;;;;;;;;;;;18.20;75.10;;;;;;5074859;28;19996;-77
2023/10/08 01:11:17;;;;;;;;;;;18.20;75.10;;;;;;5067833;28;19978;-78
2023/10/08 01:13:45;;;;;;;;;;;18.10;75.10;;;;;;5074886;28;20282;-78
2023/10/08 01:16:11;;;;;;;;;;;18.20;75.00;;;;;;5075035;28;19908;-77
2023/10/08 01:18:37;;;;;;;;;;;18.20;74.90;;;;;;5073987;28;19919;-78
2023/10/08 01:21:11;;;;;;;;;;;18.30;74.60;;;;;;5074760;28;19908;-78
2023/10/08 01:23:38;;;;;;;;;;;18.20;74.90;;;;;;5076658;28;19909;-78
2023/10/08 01:26:10;;;;;;;;;;;18.20;74.90;;;;;;5075652;28;20412;-79
2023/10/08 01:28:36;;;;;;;;;;;18.20;75.00;;;;;;5070893;28;19920;-78
2023/10/08 01:31:06;;;;;;;;;;;18.20;74.70;;;;;;5070211;28;19920;-78
2023/10/08 01:33:37;;;;;;;;;;;18.30;74.70;;;;;;5073377;28;20266;-77
2023/10/08 01:36:04;;;;;;;;;;;18.40;74.50;;;;;;5077662;28;19915;-79
2023/10/08 01:38:30;;;;;;;;;;;18.30;74.30;;;;;;5072508;28;19943;-79
2023/10/08 01:40:56;;;;;;;;;;;18.30;74.60;;;;;;5075749;28;19909;-79
2023/10/08 01:43:22;;;;;;;;;;;18.40;74.10;;;;;;5074107;28;20286;-79
2023/10/08 01:45:52;;;;;;;;;;;18.30;74.50;;;;;;5076956;28;19983;-79
2023/10/08 01:48:25;;;;;;;;;;;18.30;74.50;;;;;;5074000;28;19948;-78
2023/10/08 01:50:54;;;;;;;;;;;18.30;74.20;;;;;;5076805;28;19908;-78
2023/10/08 01:53:20;;;;;;;;;;;18.30;74.40;;;;;;5074986;28;19913;-79
2023/10/08 01:55:48;;;;;;;;;;;18.20;74.40;;;;;;5072942;28;20340;-78
2023/10/08 01:58:16;;;;;;;;;;;18.20;74.60;;;;;;5070550;28;20006;-79
2023/10/08 02:00:45;;;;;;;;;;;18.20;74.30;;;;;;5076705;28;20365;-79
2023/10/08 02:03:12;;;;;;;;;;;18.20;74.50;;;;;;5072518;28;19924;-79
2023/10/08 02:05:39;;;;;;;;;;;18.20;74.50;;;;;;5069720;28;19913;-79
2023/10/08 02:08:06;;;;;;;;;;;18.10;75.10;;;;;;5075226;28;19908;-79
2023/10/08 02:10:33;;;;;;;;;;;18.30;74.60;;;;;;5074845;28;19935;-78
2023/10/08 02:12:59;;;;;;;;;;;18.20;74.80;;;;;;5075450;28;19920;-78
2023/10/08 02:15:26;;;;;;;;;;;18.20;74.90;;;;;;5073104;28;19917;-79
2023/10/08 02:17:51;;;;;;;;;;;18.10;75.00;;;;;;5073251;28;19917;-78
2023/10/08 02:20:18;;;;;;;;;;;18.10;75.10;;;;;;5076117;28;19987;-79
2023/10/08 02:22:45;;;;;;;;;;;18.10;75.30;;;;;;5072720;28;19918;-78
2023/10/08 02:25:11;;;;;;;;;;;18.10;75.30;;;;;;5075217;28;19970;-79
2023/10/08 02:27:37;;;;;;;;;;;18.10;75.00;;;;;;5076070;28;20397;-79
2023/10/08 02:30:05;;;;;;;;;;;18.10;75.30;;;;;;5074106;28;19908;-78
2023/10/08 02:32:31;;;;;;;;;;;18.10;75.00;;;;;;5071463;28;19925;-79
2023/10/08 02:34:57;;;;;;;;;;;18.10;75.20;;;;;;5073891;28;20014;-79
2023/10/08 02:37:23;;;;;;;;;;;18.10;75.10;;;;;;5075676;28;19914;-79
2023/10/08 02:39:48;;;;;;;;;;;18.10;75.10;;;;;;5072821;28;20281;-78
2023/10/08 02:42:14;;;;;;;;;;;18.00;75.30;;;;;;5069797;28;19917;-79
2023/10/08 02:44:41;;;;;;;;;;;18.00;75.70;;;;;;5071904;28;20354;-79
2023/10/08 02:47:22;;;;;;;;;;;17.90;76.40;;;;;;5071409;28;19913;-79
2023/10/08 02:49:52;;;;;;;;;;;17.90;76.20;;;;;;5066957;28;19920;-79
2023/10/08 02:52:17;;;;;;;;;;;17.90;76.60;;;;;;5073504;28;19920;-79
2023/10/08 02:54:43;;;;;;;;;;;17.80;76.60;;;;;;5073029;28;19984;-79
2023/10/08 02:57:14;;;;;;;;;;;17.90;76.50;;;;;;5075032;28;19923;-78
2023/10/08 02:59:44;;;;;;;;;;;18.00;75.70;;;;;;5070186;28;19912;-79
2023/10/08 03:02:14;;;;;;;;;;;18.00;76.10;;;;;;5073405;28;19915;-79
2023/10/08 03:04:41;;;;;;;;;;;18.00;76.40;;;;;;5068339;28;19920;-79
2023/10/08 03:07:11;;;;;;;;;;;17.80;76.80;;;;;;5071232;28;19963;-78
2023/10/08 03:09:41;;;;;;;;;;;17.80;76.90;;;;;;5072803;28;20004;-79
2023/10/08 03:12:09;;;;;;;;;;;17.70;77.10;;;;;;5073950;28;19916;-78
2023/10/08 03:14:47;;;;;;;;;;;17.80;76.90;;;;;;5074182;28;19916;-79
2023/10/08 03:17:19;;;;;;;;;;;17.80;76.80;;;;;;5071004;28;19963;-78
2023/10/08 03:19:45;;;;;;;;;;;17.90;76.50;;;;;;5067980;28;19912;-79
2023/10/08 03:22:12;;;;;;;;;;;17.90;76.30;;;;;;5074603;28;20384;-79
2023/10/08 03:24:38;;;;;;;;;;;17.90;76.40;;;;;;5070618;28;19995;-79
2023/10/08 03:27:12;;;;;;;;;;;17.80;76.20;;;;;;5071940;28;20458;-78
2023/10/08 03:29:41;;;;;;;;;;;17.80;76.00;;;;;;5074147;28;19908;-78
2023/10/08 03:32:13;;;;;;;;;;;17.90;75.80;;;;;;5066350;28;19924;-78
2023/10/08 03:34:43;;;;;;;;;;;17.70;76.10;;;;;;5071277;28;19912;-79
2023/10/08 03:37:09;;;;;;;;;;;17.70;76.30;;;;;;5069281;28;21209;-78
2023/10/08 03:40:00;;;;;;;;;;;17.70;76.40;;;;;;5070092;28;20014;-77
2023/10/08 03:42:29;;;;;;;;;;;17.70;76.20;;;;;;5071286;28;19909;-77
2023/10/08 03:44:56;;;;;;;;;;;17.70;76.20;;;;;;5070983;28;19912;-78
2023/10/08 03:47:26;;;;;;;;;;;17.60;76.60;;;;;;5070720;28;20407;-79
2023/10/08 03:49:53;;;;;;;;;;;17.50;76.60;;;;;;5070790;28;19919;-78
2023/10/08 03:52:23;;;;;;;;;;;17.50;76.80;;;;;;5072925;28;19920;-78
2023/10/08 03:54:55;;;;;;;;;;;17.60;76.90;;;;;;5073804;28;19908;-79
2023/10/08 03:57:28;;;;;;;;;;;17.70;76.20;;;;;;5071555;28;19920;-78
2023/10/08 03:59:58;;;;;;;;;;;17.60;76.80;;;;;;5071329;28;19912;-78
2023/10/08 04:02:40;;;;;;;;;;;17.70;76.50;;;;;;5070704;28;19913;-77
2023/10/08 04:05:18;;;;;;;;;;;17.70;76.50;;;;;;5071819;28;20003;-79
2023/10/08 04:08:39;;;;;;;;;;;17.70;76.30;;;;;;5067437;28;19920;-78
2023/10/08 04:13:08;;;;;;;;;;;17.50;76.50;;;;;;5071907;28;19916;-79
2023/10/08 04:15:43;;;;;;;;;;;17.50;76.50;;;;;;5069429;28;19991;-79
2023/10/08 04:18:09;;;;;;;;;;;17.50;76.70;;;;;;5073446;28;20313;-78
2023/10/08 04:23:04;;;;;;;;;;;17.60;76.20;;;;;;5072448;28;19909;-77
2023/10/08 04:25:30;;;;;;;;;;;17.40;76.80;;;;;;5072343;28;19915;-78
2023/10/08 04:27:58;;;;;;;;;;;17.40;76.90;;;;;;5072863;28;19908;-78
2023/10/08 04:30:32;;;;;;;;;;;17.50;77.00;;;;;;5070610;28;19922;-79
2023/10/08 04:33:06;;;;;;;;;;;17.50;76.60;;;;;;5073488;28;19943;-78
2023/10/08 04:35:36;;;;;;;;;;;17.40;76.80;;;;;;5070135;28;20373;-78
2023/10/08 04:38:03;;;;;;;;;;;17.30;76.90;;;;;;5073911;28;19913;-78
2023/10/08 04:40:33;;;;;;;;;;;17.30;76.90;;;;;;5071392;28;19916;-78
2023/10/08 04:43:02;;;;;;;;;;;17.30;77.00;;;;;;5071992;28;19909;-78
2023/10/08 04:45:27;;;;;;;;;;;17.20;77.30;;;;;;5070146;28;19999;-78
2023/10/08 04:47:53;;;;;;;;;;;17.10;77.20;;;;;;5074945;28;19947;-78
2023/10/08 04:50:21;;;;;;;;;;;17.20;77.30;;;;;;5073291;28;19913;-78
2023/10/08 04:52:58;;;;;;;;;;;17.20;77.00;;;;;;5075173;28;19995;-78
2023/10/08 04:55:29;;;;;;;;;;;17.20;77.20;;;;;;5068716;28;19917;-78
2023/10/08 04:57:55;;;;;;;;;;;17.10;77.40;;;;;;5089523;28;19978;-78
2023/10/08 05:00:41;;;;;;;;;;;17.20;77.20;;;;;;5071108;28;20015;-77
2023/10/08 05:03:16;;;;;;;;;;;17.10;77.20;;;;;;5076522;28;19909;-78
2023/10/08 05:08:47;;;;;;;;;;;17.20;76.80;;;;;;5065242;28;19919;-78
2023/10/08 05:11:36;;;;;;;;;;;17.20;77.70;;;;;;5071244;28;20003;-79
2023/10/08 05:14:06;;;;;;;;;;;17.20;77.00;;;;;;5073268;28;19920;-77
2023/10/08 05:16:44;;;;;;;;;;;17.30;76.90;;;;;;5072423;28;19917;-78
2023/10/08 05:22:17;;;;;;;;;;;17.20;77.30;;;;;;5076870;28;19919;-78
2023/10/08 05:24:51;;;;;;;;;;;17.20;77.30;;;;;;5075844;28;20317;-78
2023/10/08 05:30:15;;;;;;;;;;;17.20;77.50;;;;;;5074298;28;19915;-78
2023/10/08 05:35:48;;;;;;;;;;;17.30;77.30;;;;;;5075307;28;19919;-78
2023/10/08 05:38:23;;;;;;;;;;;17.40;76.60;;;;;;5073395;28;19913;-78
2023/10/08 05:52:10;;;;;;;;;;;17.30;77.40;;;;;;5071692;28;19986;-78
2023/10/08 05:57:07;;;;;;;;;;;17.10;78.50;;;;;;5076575;28;20268;-77
2023/10/08 05:59:52;;;;;;;;;;;17.10;78.90;;;;;;5072883;28;19958;-78
2023/10/08 06:07:56;;;;;;;;;;;17.00;79.00;;;;;;5073275;28;19943;-78
2023/10/08 06:13:04;;;;;;;;;;;17.10;78.70;;;;;;5076133;28;19964;-78
2023/10/08 06:16:41;;;;;;;;;;;17.10;78.50;;;;;;5070391;28;20051;-77
2023/10/08 06:18:31;;;;;;;;;;;17.10;78.80;;;;;;5064788;28;19915;-79
2023/10/08 06:21:01;;;;;;;;;;;17.10;79.10;;;;;;5073939;28;19935;-79
2023/10/08 06:23:28;;;;;;;;;;;17.10;79.00;;;;;;5075711;28;19908;-78
2023/10/08 06:25:56;;;;;;;;;;;17.10;79.30;;;;;;5074209;28;19912;-79
2023/10/08 06:28:25;;;;;;;;;;;17.10;78.70;;;;;;5070627;28;19995;-78
2023/10/08 06:30:55;;;;;;;;;;;17.10;78.90;;;;;;5068725;28;20385;-78
2023/10/08 06:33:30;;;;;;;;;;;17.20;79.00;;;;;;5072371;28;20010;-79
2023/10/08 06:36:13;;;;;;;;;;;17.20;78.10;;;;;;5072037;28;20325;-78
2023/10/08 06:38:43;;;;;;;;;;;17.30;77.80;;;;;;5074049;28;19922;-78
2023/10/08 06:43:39;;;;;;;;;;;17.20;77.80;;;;;;5073133;28;19919;-79
2023/10/08 06:46:07;;;;;;;;;;;17.10;78.10;;;;;;5073758;28;19909;-79
2023/10/08 06:48:34;;;;;;;;;;;17.10;78.70;;;;;;5074802;28;19913;-79
2023/10/08 06:51:08;;;;;;;;;;;17.20;77.80;;;;;;5073734;28;20301;-79
2023/10/08 06:53:34;;;;;;;;;;;17.10;77.90;;;;;;5074681;28;19913;-79
2023/10/08 06:56:04;;;;;;;;;;;17.20;77.30;;;;;;5072299;28;19980;-78
2023/10/08 06:58:32;;;;;;;;;;;17.10;77.70;;;;;;5072558;28;19934;-77
2023/10/08 07:00:58;;;;;;;;;;;17.10;77.80;;;;;;5070179;28;19908;-79
2023/10/08 07:03:24;;;;;;;;;;;17.10;78.50;;;;;;5072036;28;19920;-79
2023/10/08 07:05:54;;;;;;;;;;;17.10;78.40;;;;;;5073745;28;19912;-79
2023/10/08 07:08:26;;;;;;;;;;;17.10;78.10;;;;;;5071912;28;19995;-79
2023/10/08 07:10:53;;;;;;;;;;;17.10;78.50;;;;;;5071767;28;19921;-79
2023/10/08 07:13:22;;;;;;;;;;;17.10;78.90;;;;;;5073601;28;20007;-79
2023/10/08 07:15:51;;;;;;;;;;;17.00;79.40;;;;;;5067549;28;19974;-79
2023/10/08 07:18:27;;;;;;;;;;;17.00;80.00;;;;;;5069301;28;20377;-78
2023/10/08 07:21:00;;;;;;;;;;;17.00;80.50;;;;;;5068501;28;19955;-79
2023/10/08 07:23:28;;;;;;;;;;;16.80;80.90;;;;;;5074976;28;19939;-78
2023/10/08 07:26:13;;;;;;;;;;;16.60;81.20;;;;;;5075876;28;19908;-79
2023/10/08 07:28:41;;;;;;;;;;;16.40;82.10;;;;;;5073608;28;19908;-79
2023/10/08 07:31:15;;;;;;;;;;;16.30;82.70;;;;;;5070307;28;20401;-79
2023/10/08 07:33:43;;;;;;;;;;;16.20;83.20;;;;;;5072477;28;20408;-79
2023/10/08 07:36:14;;;;;;;;;;;15.80;83.60;;;;;;5072569;28;19919;-79
2023/10/08 07:38:42;;;;;;;;;;;15.60;84.10;;;;;;5074528;28;19943;-79
2023/10/08 07:41:08;;;;;;;;;;;15.30;84.10;;;;;;5072329;28;19991;-79
2023/10/08 07:43:35;;;;;;;;;;;15.30;84.40;;;;;;5074769;28;20395;-78
2023/10/08 07:46:00;;;;;;;;;;;15.30;84.50;;;;;;5070380;28;19920;-79
2023/10/08 07:48:29;;;;;;;;;;;15.30;84.40;;;;;;5073669;28;19908;-78
2023/10/08 07:50:56;;;;;;;;;;;15.20;84.40;;;;;;5074127;28;19924;-79
2023/10/08 07:53:24;;;;;;;;;;;15.20;84.70;;;;;;5075742;28;19916;-78
2023/10/08 07:55:51;;;;;;;;;;;15.10;84.80;;;;;;5067848;28;19917;-77
2023/10/08 07:58:17;;;;;;;;;;;15.10;85.00;;;;;;5069398;28;19912;-78
2023/10/08 08:00:51;;;;;;;;;;;15.30;84.50;;;;;;5070141;28;19972;-79
2023/10/08 08:03:20;;;;;;;;;;;15.30;84.10;;;;;;5072699;28;19958;-78
2023/10/08 08:05:46;;;;;;;;;;;15.20;84.30;;;;;;5064985;28;19923;-79
2023/10/08 08:08:17;;;;;;;;;;;15.00;84.50;;;;;;5068593;28;20289;-78
2023/10/08 08:10:44;;;;;;;;;;;14.90;84.70;;;;;;5071679;28;20567;-79
2023/10/08 08:13:09;;;;;;;;;;;14.80;85.20;;;;;;5074716;28;19933;-78
2023/10/08 08:15:40;;;;;;;;;;;14.70;85.50;;;;;;5069131;28;19917;-78
2023/10/08 08:18:07;;;;;;;;;;;14.70;85.60;;;;;;5070519;28;19913;-78
2023/10/08 08:20:38;;;;;;;;;;;14.70;85.60;;;;;;5070797;28;19924;-78
2023/10/08 08:23:07;;;;;;;;;;;14.70;85.80;;;;;;5072135;28;19992;-78
2023/10/08 08:25:45;;;;;;;;;;;14.70;85.30;;;;;;5071032;28;19912;-78
2023/10/08 08:28:17;;;;;;;;;;;14.70;85.00;;;;;;5066954;28;19943;-79
2023/10/08 08:30:46;;;;;;;;;;;14.70;85.20;;;;;;5069665;28;20594;-79
2023/10/08 08:33:12;;;;;;;;;;;14.60;85.40;;;;;;5066027;28;19924;-79
2023/10/08 08:35:38;;;;;;;;;;;14.60;85.50;;;;;;5069471;28;19913;-78
2023/10/08 08:38:05;;;;;;;;;;;14.50;86.00;;;;;;5070834;28;19959;-78
2023/10/08 08:40:32;;;;;;;;;;;14.70;86.10;;;;;;5070021;28;19920;-79
2023/10/08 08:43:02;;;;;;;;;;;14.60;86.00;;;;;;5072829;28;19908;-79
2023/10/08 08:45:31;;;;;;;;;;;14.60;86.10;;;;;;5071484;28;19920;-78
2023/10/08 08:47:57;;;;;;;;;;;14.50;86.00;;;;;;5075681;28;19908;-79
2023/10/08 08:50:22;;;;;;;;;;;14.50;86.00;;;;;;5078954;28;20289;-78
2023/10/08 08:52:48;;;;;;;;;;;14.50;86.40;;;;;;5075766;28;19925;-79
2023/10/08 08:55:16;;;;;;;;;;;14.60;86.20;;;;;;5074824;28;19912;-78
2023/10/08 08:57:43;;;;;;;;;;;14.60;86.10;;;;;;5076968;28;19916;-79
2023/10/08 09:00:11;;;;;;;;;;;14.50;86.30;;;;;;5077103;28;19943;-79
2023/10/08 09:02:40;;;;;;;;;;;14.50;86.80;;;;;;5074090;28;20297;-79
2023/10/08 09:05:25;;;;;;;;;;;14.40;87.00;;;;;;5073498;28;20411;-78
2023/10/08 09:07:57;;;;;;;;;;;14.30;87.30;;;;;;5075042;28;19913;-79
2023/10/08 09:10:29;;;;;;;;;;;14.20;87.60;;;;;;5076198;28;20377;-79
2023/10/08 09:12:59;;;;;;;;;;;14.10;87.90;;;;;;5073706;28;19912;-79
2023/10/08 09:15:25;;;;;;;;;;;14.10;88.00;;;;;;5077872;28;19946;-79
2023/10/08 09:17:52;;;;;;;;;;;14.00;88.00;;;;;;5073067;28;19916;-78
2023/10/08 09:20:19;;;;;;;;;;;13.90;88.10;;;;;;5075648;28;19916;-79
2023/10/08 09:22:47;;;;;;;;;;;13.70;87.90;;;;;;5072256;28;19924;-79
2023/10/08 09:25:32;;;;;;;;;;;13.60;87.70;;;;;;5075080;28;19974;-78
2023/10/08 09:27:57;;;;;;;;;;;13.60;87.50;;;;;;5068992;28;19916;-79
2023/10/08 09:30:25;;;;;;;;;;;13.60;87.10;;;;;;5074687;28;20369;-78
2023/10/08 09:32:51;;;;;;;;;;;13.60;87.20;;;;;;5072729;28;20396;-79
2023/10/08 09:35:17;;;;;;;;;;;13.80;87.00;;;;;;5074387;28;19974;-78
2023/10/08 09:37:44;;;;;;;;;;;13.80;86.10;;;;;;5073819;28;19913;-78
2023/10/08 09:40:11;;;;;;;;;;;13.80;85.80;;;;;;5075732;28;19987;-79
2023/10/08 09:42:37;;;;;;;;;;;13.90;85.60;;;;;;5076263;28;19915;-77
2023/10/08 09:45:05;;;;;;;;;;;13.80;85.50;;;;;;5074622;28;19920;-79
2023/10/08 09:47:34;;;;;;;;;;;13.70;85.90;;;;;;5074098;28;20378;-79
2023/10/08 09:50:07;;;;;;;;;;;13.70;85.80;;;;;;5075045;28;19936;-79
2023/10/08 09:52:44;;;;;;;;;;;13.70;86.10;;;;;;5074372;28;19916;-84
2023/10/08 09:55:10;;;;;;;;;;;13.70;86.10;;;;;;5077166;28;19924;-84
2023/10/08 09:57:36;;;;;;;;;;;13.70;86.40;;;;;;5074789;28;19909;-85
2023/10/08 10:00:04;;;;;;;;;;;13.80;85.90;;;;;;5076891;28;20282;-84
2023/10/08 10:02:31;;;;;;;;;;;13.80;85.10;;;;;;5072951;28;19913;-83
2023/10/08 10:04:56;;;;;;;;;;;14.00;84.30;;;;;;5072765;28;19913;-84
2023/10/08 10:07:22;;;;;;;;;;;14.10;83.80;;;;;;5073610;28;20420;-83
2023/10/08 10:09:53;;;;;;;;;;;14.00;83.50;;;;;;5076171;28;19912;-83
2023/10/08 10:12:25;;;;;;;;;;;14.00;83.00;;;;;;5070979;28;19922;-84
2023/10/08 10:14:55;;;;;;;;;;;14.00;83.20;;;;;;5072602;28;20424;-84
2023/10/08 10:17:25;;;;;;;;;;;14.10;82.70;;;;;;5078836;28;19908;-84
2023/10/08 10:19:59;;;;;;;;;;;14.20;82.80;;;;;;5077698;28;19912;-84
2023/10/08 10:22:28;;;;;;;;;;;14.10;82.10;;;;;;5072449;28;20266;-84
2023/10/08 10:24:54;;;;;;;;;;;14.20;82.50;;;;;;5071939;28;19920;-83
2023/10/08 10:27:20;;;;;;;;;;;14.30;82.40;;;;;;5074949;28;19909;-83
2023/10/08 10:29:47;;;;;;;;;;;14.40;81.90;;;;;;5075058;28;19908;-82
2023/10/08 10:32:14;;;;;;;;;;;14.40;81.80;;;;;;5074279;28;20422;-83
2023/10/08 10:34:41;;;;;;;;;;;14.40;81.00;;;;;;5070751;28;19993;-82
2023/10/08 10:37:18;;;;;;;;;;;14.40;81.10;;;;;;5070917;28;20015;-82
2023/10/08 10:39:52;;;;;;;;;;;14.50;81.50;;;;;;5071301;28;19944;-82
2023/10/08 10:42:20;;;;;;;;;;;14.70;81.20;;;;;;5068335;28;19909;-83
2023/10/08 10:44:49;;;;;;;;;;;14.80;80.80;;;;;;5071131;28;19986;-82
2023/10/08 10:49:52;;;;;;;;;;;14.80;80.10;;;;;;5075606;28;19923;-84
2023/10/08 10:52:31;;;;;;;;;;;14.70;79.60;;;;;;5072248;28;20005;-83
2023/10/08 10:55:17;;;;;;;;;;;14.70;80.20;;;;;;5069768;28;19908;-83
2023/10/08 10:57:56;;;;;;;;;;;14.60;80.40;;;;;;5071540;28;20007;-82
2023/10/08 11:03:02;;;;;;;;;;;14.70;79.90;;;;;;5073504;28;20420;-82
2023/10/08 11:05:28;;;;;;;;;;;14.80;80.60;;;;;;5072739;28;19908;-82
2023/10/08 11:08:04;;;;;;;;;;;14.80;80.40;;;;;;5077827;28;19912;-84
2023/10/08 11:10:38;;;;;;;;;;;14.90;80.40;;;;;;5078830;28;19908;-84
2023/10/08 11:13:04;;;;;;;;;;;15.00;79.90;;;;;;5077325;28;19923;-83
2023/10/08 11:15:37;;;;;;;;;;;15.00;80.10;;;;;;5081871;28;19920;-83
2023/10/08 11:18:09;;;;;;;;;;;15.20;80.40;;;;;;5076196;28;19980;-83
2023/10/08 11:20:39;;;;;;;;;;;15.30;80.00;;;;;;5077284;28;20062;-83
2023/10/08 11:23:21;;;;;;;;;;;15.60;79.70;;;;;;5074960;28;19919;-82
2023/10/08 11:25:54;;;;;;;;;;;15.60;78.60;;;;;;5074175;28;20297;-84
2023/10/08 11:28:19;;;;;;;;;;;15.60;78.10;;;;;;5067298;28;20378;-83
2023/10/08 11:30:46;;;;;;;;;;;15.60;77.80;;;;;;5064742;28;19919;-82
2023/10/08 11:33:15;;;;;;;;;;;15.50;78.20;;;;;;5071507;28;20420;-82
2023/10/08 11:35:58;;;;;;;;;;;15.40;78.40;;;;;;5067900;28;19916;-83
2023/10/08 11:38:24;;;;;;;;;;;15.40;78.90;;;;;;5064201;28;19916;-82
2023/10/08 11:40:51;;;;;;;;;;;15.40;78.60;;;;;;5074120;28;19938;-83
2023/10/08 11:43:16;;;;;;;;;;;15.30;78.80;;;;;;5067770;28;19917;-83
2023/10/08 11:45:48;;;;;;;;;;;15.30;78.90;;;;;;5070941;28;19917;-82
2023/10/08 11:48:13;;;;;;;;;;;15.30;79.20;;;;;;5072635;28;19913;-83
2023/10/08 11:50:40;;;;;;;;;;;15.40;79.10;;;;;;5065960;28;19912;-83
2023/10/08 11:53:05;;;;;;;;;;;15.50;79.40;;;;;;5072878;28;19924;-83
2023/10/08 11:55:36;;;;;;;;;;;15.60;79.10;;;;;;5070089;28;20032;-83
2023/10/08 11:58:11;;;;;;;;;;;15.80;78.50;;;;;;5072053;28;20003;-83
2023/10/08 12:00:43;;;;;;;;;;;15.90;77.90;;;;;;5069175;28;19969;-83
2023/10/08 12:03:12;;;;;;;;;;;16.00;77.60;;;;;;5070285;28;21288;-83
2023/10/08 12:05:47;;;;;;;;;;;16.10;77.70;;;;;;5069036;28;19912;-82
2023/10/08 12:08:17;;;;;;;;;;;16.20;78.00;;;;;;5074320;28;20003;-83
2023/10/08 12:10:43;;;;;;;;;;;16.30;77.00;;;;;;5075284;28;19923;-83
2023/10/08 12:13:10;;;;;;;;;;;16.40;76.90;;;;;;5070611;28;19924;-82
2023/10/08 12:15:38;;;;;;;;;;;16.30;76.30;;;;;;5070954;28;19916;-83
2023/10/08 12:20:48;;;;;;;;;;;16.20;77.00;;;;;;5067809;28;19918;-82
2023/10/08 12:23:24;;;;;;;;;;;16.10;77.30;;;;;;5079846;28;19908;-82
2023/10/08 12:25:51;;;;;;;;;;;16.00;77.60;;;;;;5074113;28;19917;-82
2023/10/08 12:28:19;;;;;;;;;;;16.10;77.10;;;;;;5074187;28;19955;-82
2023/10/08 12:30:45;;;;;;;;;;;16.10;77.60;;;;;;5076281;28;19908;-82
2023/10/08 12:33:12;;;;;;;;;;;16.20;77.20;;;;;;5074517;28;19917;-82
2023/10/08 12:35:39;;;;;;;;;;;16.20;77.70;;;;;;5076183;28;19908;-82
2023/10/08 12:38:05;;;;;;;;;;;16.30;76.80;;;;;;5071997;28;19973;-81
2023/10/08 12:40:42;;;;;;;;;;;16.30;76.00;;;;;;5072307;28;19924;-81
2023/10/08 12:43:08;;;;;;;;;;;16.20;77.20;;;;;;5068756;28;20408;-81
2023/10/08 12:45:33;;;;;;;;;;;16.10;76.00;;;;;;5075718;28;19916;-81
2023/10/08 12:47:59;;;;;;;;;;;16.00;77.00;;;;;;5070108;28;19912;-80
2023/10/08 12:50:42;;;;;;;;;;;15.80;76.90;;;;;;5069373;28;20357;-80
2023/10/08 12:53:11;;;;;;;;;;;15.90;77.60;;;;;;5066296;28;19946;-82
2023/10/08 12:55:40;;;;;;;;;;;16.00;78.20;;;;;;5070211;28;19916;-81
2023/10/08 12:58:09;;;;;;;;;;;16.00;77.90;;;;;;5067654;28;19975;-81
2023/10/08 13:00:37;;;;;;;;;;;16.00;77.20;;;;;;5071772;28;19920;-82
2023/10/08 13:03:05;;;;;;;;;;;16.10;77.00;;;;;;5072751;28;20394;-82
2023/10/08 13:05:33;;;;;;;;;;;16.00;77.20;;;;;;5072261;28;20278;-83
2023/10/08 13:08:03;;;;;;;;;;;16.10;77.90;;;;;;5073843;28;19913;-83
2023/10/08 13:10:30;;;;;;;;;;;16.10;77.90;;;;;;5080784;28;19912;-83
2023/10/08 13:12:56;;;;;;;;;;;16.20;77.30;;;;;;5078049;28;19925;-84
2023/10/08 13:15:25;;;;;;;;;;;16.10;77.00;;;;;;5081268;28;19976;-85
2023/10/08 13:17:53;;;;;;;;;;;16.10;78.40;;;;;;5080200;28;21260;-83
2023/10/08 13:20:21;;;;;;;;;;;16.30;78.00;;;;;;5074438;28;19935;-84
2023/10/08 13:22:46;;;;;;;;;;;16.50;77.30;;;;;;5079245;28;20020;-83
2023/10/08 13:25:12;;;;;;;;;;;16.50;77.40;;;;;;5078471;28;19970;-84
2023/10/08 13:27:39;;;;;;;;;;;16.60;76.90;;;;;;5081410;28;20625;-83
2023/10/08 13:30:07;;;;;;;;;;;16.80;77.50;;;;;;5079448;28;19919;-84
2023/10/08 13:32:35;;;;;;;;;;;16.90;76.40;;;;;;5080298;28;19952;-84
2023/10/08 13:35:01;;;;;;;;;;;16.80;76.30;;;;;;5080544;28;19925;-84
2023/10/08 13:37:26;;;;;;;;;;;16.90;76.00;;;;;;5086334;28;19909;-83
2023/10/08 13:39:53;;;;;;;;;;;17.00;75.80;;;;;;5086582;28;19988;-84
2023/10/08 13:42:20;;;;;;;;;;;17.00;75.80;;;;;;5083553;28;20018;-83
2023/10/08 13:44:46;;;;;;;;;;;16.90;76.20;;;;;;5085109;28;20534;-84
2023/10/08 13:47:15;;;;;;;;;;;16.90;76.40;;;;;;5087282;28;19989;-83
2023/10/08 13:49:42;;;;;;;;;;;16.90;76.70;;;;;;5090798;28;19944;-84
2023/10/08 13:52:08;;;;;;;;;;;16.80;77.10;;;;;;5087196;28;19932;-83
2023/10/08 13:54:39;;;;;;;;;;;16.80;77.00;;;;;;5094247;28;19904;-83
2023/10/08 13:57:08;;;;;;;;;;;16.80;77.10;;;;;;5090199;28;20091;-83
2023/10/08 13:59:34;;;;;;;;;;;16.80;77.30;;;;;;5094035;28;19903;-83
2023/10/08 14:02:01;;;;;;;;;;;16.70;77.30;;;;;;5086262;28;19916;-84
2023/10/08 14:04:30;;;;;;;;;;;16.60;77.00;;;;;;5080200;28;19923;-83
2023/10/08 14:06:58;;;;;;;;;;;16.60;77.40;;;;;;5081965;28;19909;-84
2023/10/08 14:09:36;;;;;;;;;;;16.50;77.90;;;;;;5074714;28;19912;-83
2023/10/08 14:12:02;;;;;;;;;;;16.40;78.60;;;;;;5072845;28;19916;-83
2023/10/08 14:14:30;;;;;;;;;;;16.40;79.10;;;;;;5070923;28;19916;-83
2023/10/08 14:16:59;;;;;;;;;;;16.40;79.50;;;;;;5070388;28;20002;-80
2023/10/08 14:19:35;;;;;;;;;;;16.40;78.80;;;;;;5069468;28;19958;-81
2023/10/08 14:22:03;;;;;;;;;;;16.50;78.80;;;;;;5072324;28;19971;-82
2023/10/08 14:24:32;;;;;;;;;;;16.50;78.80;;;;;;5074386;28;19912;-83
2023/10/08 14:27:02;;;;;;;;;;;16.60;78.20;;;;;;5075515;28;19916;-82
2023/10/08 14:29:28;;;;;;;;;;;16.50;78.60;;;;;;5071944;28;20315;-82
2023/10/08 14:31:56;;;;;;;;;;;16.70;78.10;;;;;;5076546;28;19931;-82
2023/10/08 14:42:55;;;;;;;;;;;16.60;79.40;;;;;;5073724;28;20587;-82
2023/10/08 14:45:27;;;;;;;;;;;16.30;79.80;;;;;;5073290;28;19916;-83
2023/10/08 14:47:54;;;;;;;;;;;16.50;81.70;;;;;;5069312;28;19916;-81
2023/10/08 14:50:21;;;;;;;;;;;16.50;81.20;;;;;;5065862;28;19917;-81
2023/10/08 14:52:47;;;;;;;;;;;16.60;80.00;;;;;;5074569;28;19920;-82
2023/10/08 14:55:13;;;;;;;;;;;16.60;80.10;;;;;;5067388;28;19908;-82
2023/10/08 14:57:39;;;;;;;;;;;16.50;81.30;;;;;;5075111;28;19956;-81
2023/10/08 15:00:05;;;;;;;;;;;16.60;80.50;;;;;;5070923;28;19916;-81
2023/10/08 15:02:31;;;;;;;;;;;16.50;79.80;;;;;;5073718;28;19909;-83
2023/10/08 15:04:57;;;;;;;;;;;16.30;80.20;;;;;;5071026;28;19924;-81
2023/10/08 15:07:23;;;;;;;;;;;16.40;81.00;;;;;;5074864;28;20391;-83
2023/10/08 15:09:49;;;;;;;;;;;16.40;81.50;;;;;;5074764;28;19997;-83
2023/10/08 15:12:17;;;;;;;;;;;16.40;81.00;;;;;;5075917;28;19912;-82
2023/10/08 15:14:43;;;;;;;;;;;16.40;80.60;;;;;;5074846;28;20959;-81
2023/10/08 15:17:09;;;;;;;;;;;16.40;80.50;;;;;;5077720;28;19909;-83
2023/10/08 15:19:35;;;;;;;;;;;16.30;81.20;;;;;;5072757;28;20456;-82
2023/10/08 15:22:01;;;;;;;;;;;16.30;81.70;;;;;;5084712;28;19959;-83
2023/10/08 15:24:26;;;;;;;;;;;16.30;81.30;;;;;;5074924;28;19948;-83
2023/10/08 15:26:52;;;;;;;;;;;16.60;80.40;;;;;;5074665;28;19916;-82